sensor_id;sensor_type;location;lat;lon;timestamp;P1;durP1;ratioP1;P2;durP2;ratioP2
49183;SDS011;35021;49.214;12.270;2023-05-07T00:02:00;3.75;;;1.70;;
49183;SDS011;35021;49.214;12.270;2023-05-07T00:04:27;2.75;;;1.02;;
49183;SDS011;35021;49.214;12.270;2023-05-07T00:06:54;3.17;;;1.10;;
49183;SDS011;35021;49.214;12.270;2023-05-07T00:09:22;3.58;;;1.17;;
49183;SDS011;35021;49.214;12.270;2023-05-07T00:11:48;2.65;;;1.00;;
49183;SDS011;35021;49.214;12.270;2023-05-07T00:14:15;2.95;;;1.10;;
49183;SDS011;35021;49.214;12.270;2023-05-07T00:16:42;1.77;;;1.10;;
49183;SDS011;35021;49.214;12.270;2023-05-07T00:19:09;1.40;;;1.00;;
49183;SDS011;35021;49.214;12.270;2023-05-07T00:21:36;2.55;;;1.00;;
49183;SDS011;35021;49.214;12.270;2023-05-07T00:24:03;2.00;;;0.90;;
49183;SDS011;35021;49.214;12.270;2023-05-07T00:26:31;1.67;;;1.10;;
49183;SDS011;35021;49.214;12.270;2023-05-07T00:28:57;1.77;;;0.90;;
49183;SDS011;35021;49.214;12.270;2023-05-07T00:31:24;3.15;;;0.88;;
49183;SDS011;35021;49.214;12.270;2023-05-07T00:33:51;1.95;;;1.10;;
49183;SDS011;35021;49.214;12.270;2023-05-07T00:36:18;3.60;;;1.30;;
49183;SDS011;35021;49.214;12.270;2023-05-07T00:38:45;1.85;;;1.10;;
49183;SDS011;35021;49.214;12.270;2023-05-07T00:41:12;2.22;;;1.10;;
49183;SDS011;35021;49.214;12.270;2023-05-07T00:43:39;2.95;;;1.10;;
49183;SDS011;35021;49.214;12.270;2023-05-07T00:46:06;3.75;;;1.15;;
49183;SDS011;35021;49.214;12.270;2023-05-07T00:48:33;4.72;;;1.38;;
49183;SDS011;35021;49.214;12.270;2023-05-07T00:51:00;1.65;;;1.45;;
49183;SDS011;35021;49.214;12.270;2023-05-07T00:53:27;3.05;;;1.35;;
49183;SDS011;35021;49.214;12.270;2023-05-07T00:55:54;2.35;;;1.13;;
49183;SDS011;35021;49.214;12.270;2023-05-07T00:58:22;1.48;;;1.00;;
49183;SDS011;35021;49.214;12.270;2023-05-07T01:00:49;1.90;;;1.05;;
49183;SDS011;35021;49.214;12.270;2023-05-07T01:03:17;3.53;;;1.50;;
49183;SDS011;35021;49.214;12.270;2023-05-07T01:05:44;1.38;;;1.25;;
49183;SDS011;35021;49.214;12.270;2023-05-07T01:08:13;3.63;;;1.00;;
49183;SDS011;35021;49.214;12.270;2023-05-07T01:10:41;1.80;;;1.08;;
49183;SDS011;35021;49.214;12.270;2023-05-07T01:13:09;2.63;;;1.13;;
49183;SDS011;35021;49.214;12.270;2023-05-07T01:15:37;2.13;;;1.10;;
49183;SDS011;35021;49.214;12.270;2023-05-07T01:18:04;4.45;;;1.15;;
49183;SDS011;35021;49.214;12.270;2023-05-07T01:20:32;5.07;;;1.38;;
49183;SDS011;35021;49.214;12.270;2023-05-07T01:23:00;5.63;;;1.20;;
49183;SDS011;35021;49.214;12.270;2023-05-07T01:25:28;2.10;;;1.13;;
49183;SDS011;35021;49.214;12.270;2023-05-07T01:27:55;5.80;;;1.10;;
49183;SDS011;35021;49.214;12.270;2023-05-07T01:30:22;4.28;;;1.25;;
49183;SDS011;35021;49.214;12.270;2023-05-07T01:32:51;5.85;;;1.58;;
49183;SDS011;35021;49.214;12.270;2023-05-07T01:35:22;4.65;;;1.48;;
49183;SDS011;35021;49.214;12.270;2023-05-07T01:37:55;3.92;;;1.35;;
49183;SDS011;35021;49.214;12.270;2023-05-07T01:40:22;2.33;;;1.10;;
49183;SDS011;35021;49.214;12.270;2023-05-07T01:42:50;2.10;;;1.10;;
49183;SDS011;35021;49.214;12.270;2023-05-07T01:45:18;5.80;;;1.40;;
49183;SDS011;35021;49.214;12.270;2023-05-07T01:47:45;3.15;;;1.10;;
49183;SDS011;35021;49.214;12.270;2023-05-07T01:50:12;2.38;;;1.10;;
49183;SDS011;35021;49.214;12.270;2023-05-07T01:52:42;3.28;;;1.10;;
49183;SDS011;35021;49.214;12.270;2023-05-07T01:55:09;3.58;;;1.73;;
49183;SDS011;35021;49.214;12.270;2023-05-07T01:57:36;3.55;;;1.20;;
49183;SDS011;35021;49.214;12.270;2023-05-07T02:00:03;2.55;;;1.40;;
49183;SDS011;35021;49.214;12.270;2023-05-07T02:02:31;2.47;;;1.17;;
49183;SDS011;35021;49.214;12.270;2023-05-07T02:04:59;3.13;;;1.65;;
49183;SDS011;35021;49.214;12.270;2023-05-07T02:07:27;3.30;;;1.52;;
49183;SDS011;35021;49.214;12.270;2023-05-07T02:09:54;1.92;;;1.40;;
49183;SDS011;35021;49.214;12.270;2023-05-07T02:12:22;4.43;;;1.35;;
49183;SDS011;35021;49.214;12.270;2023-05-07T02:14:49;3.05;;;1.50;;
49183;SDS011;35021;49.214;12.270;2023-05-07T02:17:16;2.58;;;1.30;;
49183;SDS011;35021;49.214;12.270;2023-05-07T02:19:43;1.58;;;1.20;;
49183;SDS011;35021;49.214;12.270;2023-05-07T02:22:10;1.77;;;1.13;;
49183;SDS011;35021;49.214;12.270;2023-05-07T02:24:37;2.20;;;1.17;;
49183;SDS011;35021;49.214;12.270;2023-05-07T02:27:04;3.75;;;1.23;;
49183;SDS011;35021;49.214;12.270;2023-05-07T02:29:31;3.53;;;1.05;;
49183;SDS011;35021;49.214;12.270;2023-05-07T02:31:58;4.43;;;1.40;;
49183;SDS011;35021;49.214;12.270;2023-05-07T02:34:25;2.95;;;1.15;;
49183;SDS011;35021;49.214;12.270;2023-05-07T02:36:52;4.55;;;1.63;;
49183;SDS011;35021;49.214;12.270;2023-05-07T02:39:19;3.55;;;1.40;;
49183;SDS011;35021;49.214;12.270;2023-05-07T02:41:45;3.17;;;1.38;;
49183;SDS011;35021;49.214;12.270;2023-05-07T02:44:12;2.83;;;1.17;;
49183;SDS011;35021;49.214;12.270;2023-05-07T02:46:39;3.17;;;1.48;;
49183;SDS011;35021;49.214;12.270;2023-05-07T02:49:06;4.28;;;1.30;;
49183;SDS011;35021;49.214;12.270;2023-05-07T02:51:33;2.72;;;1.17;;
49183;SDS011;35021;49.214;12.270;2023-05-07T02:54:00;1.33;;;1.05;;
49183;SDS011;35021;49.214;12.270;2023-05-07T02:56:27;4.63;;;1.10;;
49183;SDS011;35021;49.214;12.270;2023-05-07T02:58:54;1.80;;;1.15;;
49183;SDS011;35021;49.214;12.270;2023-05-07T03:01:21;1.60;;;1.17;;
49183;SDS011;35021;49.214;12.270;2023-05-07T03:03:48;3.15;;;1.20;;
49183;SDS011;35021;49.214;12.270;2023-05-07T03:06:15;3.55;;;1.20;;
49183;SDS011;35021;49.214;12.270;2023-05-07T03:08:42;3.15;;;1.10;;
49183;SDS011;35021;49.214;12.270;2023-05-07T03:11:10;2.55;;;1.20;;
49183;SDS011;35021;49.214;12.270;2023-05-07T03:13:37;2.35;;;1.05;;
49183;SDS011;35021;49.214;12.270;2023-05-07T03:16:04;2.90;;;0.98;;
49183;SDS011;35021;49.214;12.270;2023-05-07T03:18:31;2.40;;;1.13;;
49183;SDS011;35021;49.214;12.270;2023-05-07T03:20:58;1.60;;;1.17;;
49183;SDS011;35021;49.214;12.270;2023-05-07T03:23:25;2.75;;;1.20;;
49183;SDS011;35021;49.214;12.270;2023-05-07T03:25:53;2.35;;;1.23;;
49183;SDS011;35021;49.214;12.270;2023-05-07T03:28:20;3.78;;;1.60;;
49183;SDS011;35021;49.214;12.270;2023-05-07T03:30:48;3.83;;;1.20;;
49183;SDS011;35021;49.214;12.270;2023-05-07T03:33:15;3.08;;;1.30;;
49183;SDS011;35021;49.214;12.270;2023-05-07T03:35:42;2.75;;;1.40;;
49183;SDS011;35021;49.214;12.270;2023-05-07T03:38:09;3.17;;;1.23;;
49183;SDS011;35021;49.214;12.270;2023-05-07T03:40:37;1.60;;;1.30;;
49183;SDS011;35021;49.214;12.270;2023-05-07T03:43:04;2.72;;;1.33;;
49183;SDS011;35021;49.214;12.270;2023-05-07T03:45:31;2.72;;;1.40;;
49183;SDS011;35021;49.214;12.270;2023-05-07T03:47:58;2.72;;;1.58;;
49183;SDS011;35021;49.214;12.270;2023-05-07T03:50:25;4.70;;;1.98;;
49183;SDS011;35021;49.214;12.270;2023-05-07T03:52:51;3.70;;;1.50;;
49183;SDS011;35021;49.214;12.270;2023-05-07T03:55:18;2.88;;;1.60;;
49183;SDS011;35021;49.214;12.270;2023-05-07T03:57:45;2.42;;;1.40;;
49183;SDS011;35021;49.214;12.270;2023-05-07T04:00:12;2.55;;;1.50;;
49183;SDS011;35021;49.214;12.270;2023-05-07T04:02:40;1.92;;;1.50;;
49183;SDS011;35021;49.214;12.270;2023-05-07T04:05:07;2.78;;;1.60;;
49183;SDS011;35021;49.214;12.270;2023-05-07T04:07:34;2.50;;;1.80;;
49183;SDS011;35021;49.214;12.270;2023-05-07T04:10:01;1.77;;;1.58;;
49183;SDS011;35021;49.214;12.270;2023-05-07T04:12:28;4.68;;;1.80;;
49183;SDS011;35021;49.214;12.270;2023-05-07T04:14:55;2.95;;;1.63;;
49183;SDS011;35021;49.214;12.270;2023-05-07T04:17:22;4.25;;;1.75;;
49183;SDS011;35021;49.214;12.270;2023-05-07T04:19:49;3.03;;;1.60;;
49183;SDS011;35021;49.214;12.270;2023-05-07T04:22:16;2.58;;;1.55;;
49183;SDS011;35021;49.214;12.270;2023-05-07T04:24:43;2.88;;;1.70;;
49183;SDS011;35021;49.214;12.270;2023-05-07T04:27:10;2.95;;;2.00;;
49183;SDS011;35021;49.214;12.270;2023-05-07T04:29:37;2.33;;;1.65;;
49183;SDS011;35021;49.214;12.270;2023-05-07T04:32:09;1.92;;;1.58;;
49183;SDS011;35021;49.214;12.270;2023-05-07T04:34:36;2.17;;;1.70;;
49183;SDS011;35021;49.214;12.270;2023-05-07T04:37:03;2.03;;;1.70;;
49183;SDS011;35021;49.214;12.270;2023-05-07T04:39:30;4.45;;;1.65;;
49183;SDS011;35021;49.214;12.270;2023-05-07T04:41:56;2.60;;;1.60;;
49183;SDS011;35021;49.214;12.270;2023-05-07T04:44:23;2.80;;;1.70;;
49183;SDS011;35021;49.214;12.270;2023-05-07T04:46:51;3.03;;;2.00;;
49183;SDS011;35021;49.214;12.270;2023-05-07T04:49:18;2.50;;;1.80;;
49183;SDS011;35021;49.214;12.270;2023-05-07T04:51:44;2.70;;;2.03;;
49183;SDS011;35021;49.214;12.270;2023-05-07T04:54:12;2.60;;;1.80;;
49183;SDS011;35021;49.214;12.270;2023-05-07T04:56:38;3.15;;;2.00;;
49183;SDS011;35021;49.214;12.270;2023-05-07T04:59:05;3.30;;;1.63;;
49183;SDS011;35021;49.214;12.270;2023-05-07T05:01:32;2.83;;;1.90;;
49183;SDS011;35021;49.214;12.270;2023-05-07T05:03:59;2.25;;;2.05;;
49183;SDS011;35021;49.214;12.270;2023-05-07T05:06:27;2.38;;;1.90;;
49183;SDS011;35021;49.214;12.270;2023-05-07T05:08:54;3.22;;;2.30;;
49183;SDS011;35021;49.214;12.270;2023-05-07T05:11:21;3.05;;;2.20;;
49183;SDS011;35021;49.214;12.270;2023-05-07T05:13:48;3.08;;;2.05;;
49183;SDS011;35021;49.214;12.270;2023-05-07T05:16:16;3.58;;;1.90;;
49183;SDS011;35021;49.214;12.270;2023-05-07T05:18:43;2.75;;;2.03;;
49183;SDS011;35021;49.214;12.270;2023-05-07T05:21:10;2.83;;;1.90;;
49183;SDS011;35021;49.214;12.270;2023-05-07T05:23:36;2.00;;;1.70;;
49183;SDS011;35021;49.214;12.270;2023-05-07T05:26:03;3.08;;;2.00;;
49183;SDS011;35021;49.214;12.270;2023-05-07T05:28:30;4.03;;;2.05;;
49183;SDS011;35021;49.214;12.270;2023-05-07T05:30:57;2.42;;;2.22;;
49183;SDS011;35021;49.214;12.270;2023-05-07T05:33:24;2.95;;;2.10;;
49183;SDS011;35021;49.214;12.270;2023-05-07T05:35:51;2.67;;;1.92;;
49183;SDS011;35021;49.214;12.270;2023-05-07T05:38:18;2.13;;;1.92;;
49183;SDS011;35021;49.214;12.270;2023-05-07T05:40:45;2.45;;;2.00;;
49183;SDS011;35021;49.214;12.270;2023-05-07T05:43:11;3.38;;;2.30;;
49183;SDS011;35021;49.214;12.270;2023-05-07T05:45:39;2.63;;;2.38;;
49183;SDS011;35021;49.214;12.270;2023-05-07T05:48:06;3.40;;;2.50;;
49183;SDS011;35021;49.214;12.270;2023-05-07T05:50:34;4.22;;;2.40;;
49183;SDS011;35021;49.214;12.270;2023-05-07T05:53:04;3.20;;;2.70;;
49183;SDS011;35021;49.214;12.270;2023-05-07T05:55:31;5.30;;;2.40;;
49183;SDS011;35021;49.214;12.270;2023-05-07T05:57:59;4.07;;;2.80;;
49183;SDS011;35021;49.214;12.270;2023-05-07T06:00:28;4.22;;;2.97;;
49183;SDS011;35021;49.214;12.270;2023-05-07T06:02:55;3.45;;;2.92;;
49183;SDS011;35021;49.214;12.270;2023-05-07T06:05:22;4.78;;;2.75;;
49183;SDS011;35021;49.214;12.270;2023-05-07T06:07:49;3.58;;;3.15;;
49183;SDS011;35021;49.214;12.270;2023-05-07T06:10:16;3.47;;;3.17;;
49183;SDS011;35021;49.214;12.270;2023-05-07T06:12:44;4.57;;;2.97;;
49183;SDS011;35021;49.214;12.270;2023-05-07T06:15:11;5.72;;;3.20;;
49183;SDS011;35021;49.214;12.270;2023-05-07T06:17:38;5.22;;;2.80;;
49183;SDS011;35021;49.214;12.270;2023-05-07T06:20:05;3.42;;;3.00;;
49183;SDS011;35021;49.214;12.270;2023-05-07T06:22:32;4.32;;;2.83;;
49183;SDS011;35021;49.214;12.270;2023-05-07T06:24:59;3.50;;;3.08;;
49183;SDS011;35021;49.214;12.270;2023-05-07T06:27:27;3.55;;;3.25;;
49183;SDS011;35021;49.214;12.270;2023-05-07T06:29:54;3.20;;;2.90;;
49183;SDS011;35021;49.214;12.270;2023-05-07T06:32:21;3.33;;;3.03;;
49183;SDS011;35021;49.214;12.270;2023-05-07T06:34:48;3.05;;;2.75;;
49183;SDS011;35021;49.214;12.270;2023-05-07T06:37:15;3.63;;;3.08;;
49183;SDS011;35021;49.214;12.270;2023-05-07T06:39:42;5.50;;;3.33;;
49183;SDS011;35021;49.214;12.270;2023-05-07T06:42:09;4.25;;;3.33;;
49183;SDS011;35021;49.214;12.270;2023-05-07T06:44:36;3.28;;;2.85;;
49183;SDS011;35021;49.214;12.270;2023-05-07T06:47:03;4.28;;;3.03;;
49183;SDS011;35021;49.214;12.270;2023-05-07T06:49:30;7.43;;;3.22;;
49183;SDS011;35021;49.214;12.270;2023-05-07T06:51:57;3.50;;;2.92;;
49183;SDS011;35021;49.214;12.270;2023-05-07T06:54:24;4.63;;;3.25;;
49183;SDS011;35021;49.214;12.270;2023-05-07T06:56:51;4.97;;;3.15;;
49183;SDS011;35021;49.214;12.270;2023-05-07T06:59:18;3.95;;;3.45;;
49183;SDS011;35021;49.214;12.270;2023-05-07T07:01:45;3.50;;;3.20;;
49183;SDS011;35021;49.214;12.270;2023-05-07T07:04:12;3.25;;;2.95;;
49183;SDS011;35021;49.214;12.270;2023-05-07T07:06:39;3.42;;;2.90;;
49183;SDS011;35021;49.214;12.270;2023-05-07T07:09:06;4.25;;;3.20;;
49183;SDS011;35021;49.214;12.270;2023-05-07T07:11:33;3.90;;;3.20;;
49183;SDS011;35021;49.214;12.270;2023-05-07T07:14:00;4.85;;;2.92;;
49183;SDS011;35021;49.214;12.270;2023-05-07T07:16:27;4.95;;;3.13;;
49183;SDS011;35021;49.214;12.270;2023-05-07T07:18:55;3.55;;;3.25;;
49183;SDS011;35021;49.214;12.270;2023-05-07T07:21:22;3.20;;;2.70;;
49183;SDS011;35021;49.214;12.270;2023-05-07T07:23:48;3.55;;;3.20;;
49183;SDS011;35021;49.214;12.270;2023-05-07T07:26:17;4.93;;;3.22;;
49183;SDS011;35021;49.214;12.270;2023-05-07T07:28:44;3.38;;;3.08;;
49183;SDS011;35021;49.214;12.270;2023-05-07T07:31:12;4.53;;;2.97;;
49183;SDS011;35021;49.214;12.270;2023-05-07T07:33:39;3.33;;;3.03;;
49183;SDS011;35021;49.214;12.270;2023-05-07T07:36:07;3.13;;;2.83;;
49183;SDS011;35021;49.214;12.270;2023-05-07T07:38:34;3.03;;;2.72;;
49183;SDS011;35021;49.214;12.270;2023-05-07T07:41:01;4.40;;;3.05;;
49183;SDS011;35021;49.214;12.270;2023-05-07T07:43:28;3.10;;;2.80;;
49183;SDS011;35021;49.214;12.270;2023-05-07T07:45:56;4.18;;;3.03;;
49183;SDS011;35021;49.214;12.270;2023-05-07T07:48:22;4.13;;;2.90;;
49183;SDS011;35021;49.214;12.270;2023-05-07T07:50:49;3.42;;;3.10;;
49183;SDS011;35021;49.214;12.270;2023-05-07T07:53:17;3.60;;;3.13;;
49183;SDS011;35021;49.214;12.270;2023-05-07T07:55:45;3.75;;;3.22;;
49183;SDS011;35021;49.214;12.270;2023-05-07T07:58:12;3.45;;;2.92;;
49183;SDS011;35021;49.214;12.270;2023-05-07T08:00:39;4.32;;;3.40;;
49183;SDS011;35021;49.214;12.270;2023-05-07T08:03:08;3.45;;;3.08;;
49183;SDS011;35021;49.214;12.270;2023-05-07T08:05:36;3.38;;;2.97;;
49183;SDS011;35021;49.214;12.270;2023-05-07T08:08:04;3.70;;;2.88;;
49183;SDS011;35021;49.214;12.270;2023-05-07T08:10:32;3.95;;;2.97;;
49183;SDS011;35021;49.214;12.270;2023-05-07T08:13:01;3.40;;;3.10;;
49183;SDS011;35021;49.214;12.270;2023-05-07T08:15:30;3.92;;;2.97;;
49183;SDS011;35021;49.214;12.270;2023-05-07T08:17:57;3.70;;;3.30;;
49183;SDS011;35021;49.214;12.270;2023-05-07T08:20:28;3.65;;;3.28;;
49183;SDS011;35021;49.214;12.270;2023-05-07T08:22:55;3.53;;;3.17;;
49183;SDS011;35021;49.214;12.270;2023-05-07T08:25:22;4.82;;;3.13;;
49183;SDS011;35021;49.214;12.270;2023-05-07T08:27:49;3.33;;;3.00;;
49183;SDS011;35021;49.214;12.270;2023-05-07T08:30:16;4.22;;;3.10;;
49183;SDS011;35021;49.214;12.270;2023-05-07T08:32:42;4.32;;;3.17;;
49183;SDS011;35021;49.214;12.270;2023-05-07T08:35:10;3.42;;;3.13;;
49183;SDS011;35021;49.214;12.270;2023-05-07T08:37:37;3.38;;;3.08;;
49183;SDS011;35021;49.214;12.270;2023-05-07T08:40:04;3.45;;;3.15;;
49183;SDS011;35021;49.214;12.270;2023-05-07T08:42:36;3.50;;;3.20;;
49183;SDS011;35021;49.214;12.270;2023-05-07T08:45:04;3.38;;;3.08;;
49183;SDS011;35021;49.214;12.270;2023-05-07T08:47:42;4.82;;;3.63;;
49183;SDS011;35021;49.214;12.270;2023-05-07T08:50:12;3.67;;;2.88;;
49183;SDS011;35021;49.214;12.270;2023-05-07T08:52:39;3.83;;;3.10;;
49183;SDS011;35021;49.214;12.270;2023-05-07T08:55:07;4.65;;;3.40;;
49183;SDS011;35021;49.214;12.270;2023-05-07T08:57:35;3.65;;;3.28;;
49183;SDS011;35021;49.214;12.270;2023-05-07T09:00:03;5.00;;;3.58;;
49183;SDS011;35021;49.214;12.270;2023-05-07T09:02:36;3.58;;;3.28;;
49183;SDS011;35021;49.214;12.270;2023-05-07T09:05:05;3.58;;;3.28;;
49183;SDS011;35021;49.214;12.270;2023-05-07T09:07:33;4.10;;;3.30;;
49183;SDS011;35021;49.214;12.270;2023-05-07T09:10:03;3.63;;;3.25;;
49183;SDS011;35021;49.214;12.270;2023-05-07T09:12:31;4.35;;;3.50;;
49183;SDS011;35021;49.214;12.270;2023-05-07T09:14:59;3.78;;;3.47;;
49183;SDS011;35021;49.214;12.270;2023-05-07T09:17:26;4.18;;;3.20;;
49183;SDS011;35021;49.214;12.270;2023-05-07T09:19:54;3.80;;;3.50;;
49183;SDS011;35021;49.214;12.270;2023-05-07T09:22:22;3.60;;;3.08;;
49183;SDS011;35021;49.214;12.270;2023-05-07T09:24:50;4.65;;;3.78;;
49183;SDS011;35021;49.214;12.270;2023-05-07T09:27:17;3.65;;;3.35;;
49183;SDS011;35021;49.214;12.270;2023-05-07T09:29:44;3.80;;;3.17;;
49183;SDS011;35021;49.214;12.270;2023-05-07T09:32:11;4.32;;;3.60;;
49183;SDS011;35021;49.214;12.270;2023-05-07T09:34:38;3.28;;;2.90;;
49183;SDS011;35021;49.214;12.270;2023-05-07T09:37:06;3.65;;;3.10;;
49183;SDS011;35021;49.214;12.270;2023-05-07T09:39:43;5.72;;;3.58;;
49183;SDS011;35021;49.214;12.270;2023-05-07T09:42:12;4.40;;;3.25;;
49183;SDS011;35021;49.214;12.270;2023-05-07T09:44:43;3.83;;;3.42;;
49183;SDS011;35021;49.214;12.270;2023-05-07T09:47:11;3.95;;;3.55;;
49183;SDS011;35021;49.214;12.270;2023-05-07T09:49:43;4.28;;;2.80;;
49183;SDS011;35021;49.214;12.270;2023-05-07T09:52:15;3.65;;;3.35;;
49183;SDS011;35021;49.214;12.270;2023-05-07T09:54:42;3.08;;;2.78;;
49183;SDS011;35021;49.214;12.270;2023-05-07T09:57:11;3.30;;;2.97;;
49183;SDS011;35021;49.214;12.270;2023-05-07T09:59:39;3.55;;;3.20;;
49183;SDS011;35021;49.214;12.270;2023-05-07T10:02:09;3.47;;;3.08;;
49183;SDS011;35021;49.214;12.270;2023-05-07T10:04:36;4.03;;;3.10;;
49183;SDS011;35021;49.214;12.270;2023-05-07T10:07:03;4.03;;;3.17;;
49183;SDS011;35021;49.214;12.270;2023-05-07T10:09:31;3.15;;;2.80;;
49183;SDS011;35021;49.214;12.270;2023-05-07T10:11:59;3.20;;;2.90;;
49183;SDS011;35021;49.214;12.270;2023-05-07T10:14:26;3.10;;;2.80;;
49183;SDS011;35021;49.214;12.270;2023-05-07T10:16:54;3.30;;;2.80;;
49183;SDS011;35021;49.214;12.270;2023-05-07T10:19:22;3.20;;;2.90;;
49183;SDS011;35021;49.214;12.270;2023-05-07T10:22:04;3.17;;;2.88;;
49183;SDS011;35021;49.214;12.270;2023-05-07T10:24:32;5.95;;;2.95;;
49183;SDS011;35021;49.214;12.270;2023-05-07T10:27:01;3.42;;;3.00;;
49183;SDS011;35021;49.214;12.270;2023-05-07T10:32:26;3.33;;;2.90;;
49183;SDS011;35021;49.214;12.270;2023-05-07T10:35:04;3.63;;;3.08;;
49183;SDS011;35021;49.214;12.270;2023-05-07T10:37:37;3.30;;;3.00;;
49183;SDS011;35021;49.214;12.270;2023-05-07T10:40:05;4.07;;;2.97;;
49183;SDS011;35021;49.214;12.270;2023-05-07T10:42:33;3.80;;;3.13;;
49183;SDS011;35021;49.214;12.270;2023-05-07T10:45:13;3.97;;;2.92;;
49183;SDS011;35021;49.214;12.270;2023-05-07T10:50:53;3.28;;;2.97;;
49183;SDS011;35021;49.214;12.270;2023-05-07T10:53:47;4.00;;;3.28;;
49183;SDS011;35021;49.214;12.270;2023-05-07T10:58:44;3.90;;;3.00;;
49183;SDS011;35021;49.214;12.270;2023-05-07T11:01:11;3.25;;;2.70;;
49183;SDS011;35021;49.214;12.270;2023-05-07T11:04:22;4.10;;;3.33;;
49183;SDS011;35021;49.214;12.270;2023-05-07T11:06:39;3.80;;;3.30;;
49183;SDS011;35021;49.214;12.270;2023-05-07T11:09:06;3.35;;;2.80;;
49183;SDS011;35021;49.214;12.270;2023-05-07T11:11:46;3.30;;;3.00;;
49183;SDS011;35021;49.214;12.270;2023-05-07T11:14:14;3.22;;;2.92;;
49183;SDS011;35021;49.214;12.270;2023-05-07T11:17:10;4.10;;;3.08;;
49183;SDS011;35021;49.214;12.270;2023-05-07T11:25:05;3.42;;;3.13;;
49183;SDS011;35021;49.214;12.270;2023-05-07T11:27:32;3.72;;;3.28;;
49183;SDS011;35021;49.214;12.270;2023-05-07T11:30:00;3.92;;;3.15;;
49183;SDS011;35021;49.214;12.270;2023-05-07T11:32:28;4.05;;;3.50;;
49183;SDS011;35021;49.214;12.270;2023-05-07T11:34:57;3.10;;;2.80;;
49183;SDS011;35021;49.214;12.270;2023-05-07T11:37:26;4.45;;;3.72;;
49183;SDS011;35021;49.214;12.270;2023-05-07T11:40:08;3.90;;;3.42;;
49183;SDS011;35021;49.214;12.270;2023-05-07T11:42:38;3.50;;;3.20;;
49183;SDS011;35021;49.214;12.270;2023-05-07T11:45:06;3.83;;;3.08;;
49183;SDS011;35021;49.214;12.270;2023-05-07T11:47:34;6.25;;;3.33;;
49183;SDS011;35021;49.214;12.270;2023-05-07T11:50:02;4.03;;;3.13;;
49183;SDS011;35021;49.214;12.270;2023-05-07T11:52:31;3.65;;;3.05;;
49183;SDS011;35021;49.214;12.270;2023-05-07T11:54:59;3.15;;;2.65;;
49183;SDS011;35021;49.214;12.270;2023-05-07T11:57:28;3.55;;;3.08;;
49183;SDS011;35021;49.214;12.270;2023-05-07T11:59:56;3.50;;;3.20;;
49183;SDS011;35021;49.214;12.270;2023-05-07T12:02:25;3.28;;;2.90;;
49183;SDS011;35021;49.214;12.270;2023-05-07T12:04:52;3.40;;;3.10;;
49183;SDS011;35021;49.214;12.270;2023-05-07T12:07:20;5.90;;;3.60;;
49183;SDS011;35021;49.214;12.270;2023-05-07T12:09:47;3.50;;;3.20;;
49183;SDS011;35021;49.214;12.270;2023-05-07T12:12:14;3.58;;;3.22;;
49183;SDS011;35021;49.214;12.270;2023-05-07T12:14:44;3.20;;;2.90;;
49183;SDS011;35021;49.214;12.270;2023-05-07T12:17:13;3.63;;;2.78;;
49183;SDS011;35021;49.214;12.270;2023-05-07T12:19:41;3.17;;;2.88;;
49183;SDS011;35021;49.214;12.270;2023-05-07T12:22:10;3.17;;;2.60;;
49183;SDS011;35021;49.214;12.270;2023-05-07T12:24:48;2.88;;;2.58;;
49183;SDS011;35021;49.214;12.270;2023-05-07T12:27:16;3.70;;;3.20;;
49183;SDS011;35021;49.214;12.270;2023-05-07T12:29:47;3.38;;;2.83;;
49183;SDS011;35021;49.214;12.270;2023-05-07T12:32:15;3.25;;;2.33;;
49183;SDS011;35021;49.214;12.270;2023-05-07T12:34:43;3.45;;;2.38;;
49183;SDS011;35021;49.214;12.270;2023-05-07T12:37:11;3.25;;;2.45;;
49183;SDS011;35021;49.214;12.270;2023-05-07T12:39:48;2.85;;;2.55;;
49183;SDS011;35021;49.214;12.270;2023-05-07T12:42:19;3.30;;;2.60;;
49183;SDS011;35021;49.214;12.270;2023-05-07T12:44:51;3.20;;;2.90;;
49183;SDS011;35021;49.214;12.270;2023-05-07T12:47:18;2.60;;;2.40;;
49183;SDS011;35021;49.214;12.270;2023-05-07T12:49:46;3.42;;;2.67;;
49183;SDS011;35021;49.214;12.270;2023-05-07T12:52:14;2.80;;;2.60;;
49183;SDS011;35021;49.214;12.270;2023-05-07T12:54:48;3.25;;;2.78;;
49183;SDS011;35021;49.214;12.270;2023-05-07T12:57:15;5.05;;;2.97;;
49183;SDS011;35021;49.214;12.270;2023-05-07T12:59:46;3.95;;;2.90;;
49183;SDS011;35021;49.214;12.270;2023-05-07T13:02:13;2.85;;;2.47;;
49183;SDS011;35021;49.214;12.270;2023-05-07T13:04:40;3.15;;;2.85;;
49183;SDS011;35021;49.214;12.270;2023-05-07T13:07:07;3.25;;;2.95;;
49183;SDS011;35021;49.214;12.270;2023-05-07T13:09:34;3.30;;;3.00;;
49183;SDS011;35021;49.214;12.270;2023-05-07T13:12:03;4.22;;;3.20;;
49183;SDS011;35021;49.214;12.270;2023-05-07T13:14:31;3.88;;;3.20;;
49183;SDS011;35021;49.214;12.270;2023-05-07T13:16:57;3.75;;;3.45;;
49183;SDS011;35021;49.214;12.270;2023-05-07T13:19:24;3.53;;;3.22;;
49183;SDS011;35021;49.214;12.270;2023-05-07T13:21:51;3.80;;;3.00;;
49183;SDS011;35021;49.214;12.270;2023-05-07T13:24:18;3.88;;;3.25;;
49183;SDS011;35021;49.214;12.270;2023-05-07T13:26:45;4.45;;;3.15;;
49183;SDS011;35021;49.214;12.270;2023-05-07T13:29:12;3.33;;;3.03;;
49183;SDS011;35021;49.214;12.270;2023-05-07T13:31:39;3.70;;;3.33;;
49183;SDS011;35021;49.214;12.270;2023-05-07T13:34:09;3.63;;;3.25;;
49183;SDS011;35021;49.214;12.270;2023-05-07T13:36:36;3.78;;;3.10;;
49183;SDS011;35021;49.214;12.270;2023-05-07T13:39:06;3.30;;;3.00;;
49183;SDS011;35021;49.214;12.270;2023-05-07T13:41:33;4.25;;;3.00;;
49183;SDS011;35021;49.214;12.270;2023-05-07T13:44:00;4.63;;;3.08;;
49183;SDS011;35021;49.214;12.270;2023-05-07T13:46:27;4.05;;;3.40;;
49183;SDS011;35021;49.214;12.270;2023-05-07T13:48:54;5.90;;;3.30;;
49183;SDS011;35021;49.214;12.270;2023-05-07T13:51:21;3.58;;;3.20;;
49183;SDS011;35021;49.214;12.270;2023-05-07T13:53:48;3.65;;;3.33;;
49183;SDS011;35021;49.214;12.270;2023-05-07T13:56:15;4.65;;;3.45;;
49183;SDS011;35021;49.214;12.270;2023-05-07T13:58:42;3.35;;;3.05;;
49183;SDS011;35021;49.214;12.270;2023-05-07T14:01:25;4.88;;;3.17;;
49183;SDS011;35021;49.214;12.270;2023-05-07T14:03:52;4.20;;;2.90;;
49183;SDS011;35021;49.214;12.270;2023-05-07T14:06:19;3.67;;;3.20;;
49183;SDS011;35021;49.214;12.270;2023-05-07T14:08:46;3.75;;;2.90;;
49183;SDS011;35021;49.214;12.270;2023-05-07T14:11:13;3.60;;;3.17;;
49183;SDS011;35021;49.214;12.270;2023-05-07T14:13:39;3.55;;;3.25;;
49183;SDS011;35021;49.214;12.270;2023-05-07T14:16:06;3.67;;;3.25;;
49183;SDS011;35021;49.214;12.270;2023-05-07T14:18:34;3.53;;;3.20;;
49183;SDS011;35021;49.214;12.270;2023-05-07T14:21:04;3.20;;;2.90;;
49183;SDS011;35021;49.214;12.270;2023-05-07T14:23:32;6.07;;;2.83;;
49183;SDS011;35021;49.214;12.270;2023-05-07T14:25:59;3.28;;;2.97;;
49183;SDS011;35021;49.214;12.270;2023-05-07T14:28:26;3.72;;;3.05;;
49183;SDS011;35021;49.214;12.270;2023-05-07T14:30:53;3.35;;;3.05;;
49183;SDS011;35021;49.214;12.270;2023-05-07T14:33:20;4.43;;;2.72;;
49183;SDS011;35021;49.214;12.270;2023-05-07T14:35:47;3.20;;;2.90;;
49183;SDS011;35021;49.214;12.270;2023-05-07T14:38:15;3.13;;;2.72;;
49183;SDS011;35021;49.214;12.270;2023-05-07T14:40:42;4.57;;;3.13;;
49183;SDS011;35021;49.214;12.270;2023-05-07T14:43:09;3.25;;;2.83;;
49183;SDS011;35021;49.214;12.270;2023-05-07T14:45:36;3.83;;;2.58;;
49183;SDS011;35021;49.214;12.270;2023-05-07T14:48:03;3.20;;;2.80;;
49183;SDS011;35021;49.214;12.270;2023-05-07T14:50:30;4.05;;;2.40;;
49183;SDS011;35021;49.214;12.270;2023-05-07T14:53:00;2.85;;;2.53;;